createdAt,value
2019-03-19T00:04:10.794Z,8.60
2019-03-19T00:09:16.393Z,7.55
2019-03-19T00:14:21.622Z,7.50
2019-03-19T00:19:27.031Z,7.95
2019-03-19T00:24:32.472Z,8.10
2019-03-19T00:29:37.660Z,8.13
2019-03-19T00:34:43.071Z,7.70
2019-03-19T00:39:48.273Z,7.25
2019-03-19T00:44:53.505Z,7.50
2019-03-19T00:49:59.671Z,6.80
2019-03-19T00:55:05.213Z,6.72
2019-03-19T01:00:10.707Z,7.17
2019-03-19T01:05:16.054Z,5.37
2019-03-19T01:10:21.260Z,5.62
2019-03-19T01:15:27.421Z,6.80
2019-03-19T01:20:32.627Z,7.25
2019-03-19T01:25:37.808Z,6.80
2019-03-19T01:30:43.087Z,6.40
2019-03-19T01:35:48.327Z,7.20
2019-03-19T01:40:53.577Z,6.90
2019-03-19T01:45:58.792Z,7.35
2019-03-19T01:51:03.972Z,7.20
2019-03-19T01:56:09.229Z,7.08
2019-03-19T02:01:14.558Z,6.93
2019-03-19T02:06:19.765Z,6.63
2019-03-19T02:11:25.104Z,7.10
2019-03-19T02:16:30.309Z,7.35
2019-03-19T02:21:35.693Z,7.42
2019-03-19T02:26:41.807Z,7.03
2019-03-19T02:31:47.054Z,6.80
2019-03-19T02:36:52.287Z,6.33
2019-03-19T02:41:57.544Z,6.50
2019-03-19T02:47:02.742Z,12.82
2019-03-19T02:52:07.942Z,13.93
2019-03-19T02:57:13.126Z,8.05
2019-03-19T03:02:18.337Z,7.30
2019-03-19T03:07:24.620Z,9.58
2019-03-19T03:12:29.849Z,9.00
2019-03-19T03:17:35.073Z,7.35
2019-03-19T03:22:40.269Z,6.67
2019-03-19T03:27:45.645Z,6.07
2019-03-19T03:32:51.001Z,6.23
2019-03-19T03:37:57.338Z,6.80
2019-03-19T03:43:02.557Z,6.70
2019-03-19T03:48:07.771Z,7.47
2019-03-19T03:53:12.963Z,6.95
2019-03-19T03:58:18.308Z,7.42
2019-03-19T04:03:23.639Z,7.63
2019-03-19T04:08:28.925Z,7.07
2019-03-19T04:13:34.169Z,6.42
2019-03-19T04:18:39.369Z,6.75
2019-03-19T04:23:44.657Z,7.15
2019-03-19T04:28:52.154Z,6.43
2019-03-19T04:33:57.453Z,6.67
2019-03-19T04:39:03.262Z,7.50
2019-03-19T04:44:08.517Z,7.53
2019-03-19T04:49:13.682Z,7.17
2019-03-19T04:54:18.919Z,6.50
2019-03-19T04:59:24.136Z,6.00
2019-03-19T05:04:29.457Z,6.58
2019-03-19T05:09:34.658Z,6.50
2019-03-19T05:14:39.905Z,6.20
2019-03-19T05:19:45.224Z,6.00
2019-03-19T05:24:50.846Z,6.10
2019-03-19T05:29:56.037Z,6.07
2019-03-19T05:35:01.268Z,6.90
2019-03-19T05:40:07.054Z,5.90
2019-03-19T05:45:12.712Z,6.33
2019-03-19T05:50:19.237Z,7.97
2019-03-19T05:55:24.598Z,7.47
2019-03-19T06:00:31.559Z,8.90
2019-03-19T06:05:36.778Z,8.65
2019-03-19T06:10:42.135Z,8.03
2019-03-19T06:15:47.737Z,8.23
2019-03-19T06:20:53.380Z,7.37
2019-03-19T06:25:58.794Z,8.95
2019-03-19T06:31:04.010Z,10.35
2019-03-19T06:36:09.529Z,8.85
2019-03-19T06:41:14.801Z,9.08
2019-03-19T06:46:19.998Z,6.78
2019-03-19T06:51:25.294Z,9.90
2019-03-19T06:56:30.570Z,7.70
2019-03-19T07:01:35.888Z,6.20
2019-03-19T07:06:41.490Z,9.70
2019-03-19T07:11:47.830Z,9.63
2019-03-19T07:16:54.179Z,10.65
2019-03-19T07:21:59.427Z,6.50
2019-03-19T07:27:04.645Z,9.03
2019-03-19T07:32:10.387Z,11.10
2019-03-19T07:37:16.047Z,11.10
2019-03-19T07:42:21.269Z,9.93
2019-03-19T07:47:26.463Z,10.50
2019-03-19T07:52:31.835Z,12.07
2019-03-19T07:57:37.100Z,7.30
2019-03-19T08:02:42.307Z,8.25
2019-03-19T08:07:47.614Z,8.30
2019-03-19T08:12:52.800Z,8.73
2019-03-19T08:17:58.156Z,9.50
2019-03-19T08:23:03.398Z,9.25
2019-03-19T08:28:08.697Z,9.20
2019-03-19T08:33:12.720Z,9.33
2019-03-19T08:38:19.211Z,9.98
2019-03-19T08:43:24.494Z,8.85
2019-03-19T08:48:29.689Z,8.25
2019-03-19T08:53:35.159Z,7.63
2019-03-19T08:58:40.371Z,7.62
2019-03-19T09:03:45.670Z,6.00
2019-03-19T09:08:50.985Z,8.63
2019-03-19T09:13:56.270Z,6.83
2019-03-19T09:19:01.545Z,6.08
2019-03-19T09:24:06.961Z,5.50
2019-03-19T09:29:16.852Z,5.05
2019-03-19T09:34:19.196Z,4.97
2019-03-19T09:39:24.534Z,4.42
2019-03-19T09:44:29.722Z,4.10
2019-03-19T09:49:34.994Z,4.37
2019-03-19T09:54:40.283Z,4.95
2019-03-19T09:59:45.565Z,4.73
2019-03-19T10:04:51.698Z,4.87
2019-03-19T10:09:57.417Z,4.70
2019-03-19T10:15:02.832Z,4.80
2019-03-19T10:20:10.030Z,4.20
2019-03-19T10:25:15.268Z,3.30
2019-03-19T10:30:20.540Z,4.53
2019-03-19T10:35:25.774Z,4.67
2019-03-19T10:40:30.987Z,4.60
2019-03-19T10:45:36.580Z,4.30
2019-03-19T10:50:41.802Z,4.40
2019-03-19T10:55:47.277Z,4.30
2019-03-19T11:00:52.648Z,3.90
2019-03-19T11:05:57.882Z,3.77
2019-03-19T11:11:03.708Z,3.72
2019-03-19T11:16:08.983Z,3.83
2019-03-19T11:21:14.305Z,3.90
2019-03-19T11:26:19.676Z,11.83
2019-03-19T11:31:25.233Z,4.85
2019-03-19T11:36:30.439Z,4.00
2019-03-19T11:41:35.691Z,3.70
2019-03-19T11:46:40.870Z,4.20
2019-03-19T11:51:46.079Z,4.17
2019-03-19T11:56:51.294Z,9.20
2019-03-19T12:01:56.623Z,10.82
2019-03-19T12:07:01.810Z,8.75
2019-03-19T12:12:07.088Z,6.08
2019-03-19T12:17:12.314Z,8.23
2019-03-19T12:22:17.799Z,4.08
2019-03-19T12:27:24.047Z,4.60
2019-03-19T12:32:29.249Z,4.40
2019-03-19T12:37:34.521Z,3.60
2019-03-19T12:42:39.774Z,3.50
2019-03-19T12:47:45.426Z,3.93
2019-03-19T12:52:50.698Z,4.37
2019-03-19T12:57:56.254Z,3.25
2019-03-19T13:03:01.490Z,3.60
2019-03-19T13:08:06.707Z,3.30
2019-03-19T13:13:12.167Z,3.25
2019-03-19T13:18:20.430Z,3.15
2019-03-19T13:23:26.332Z,2.87
2019-03-19T13:28:32.974Z,3.10
2019-03-19T13:33:38.224Z,3.10
2019-03-19T13:38:43.689Z,3.40
2019-03-19T13:43:48.972Z,3.20
2019-03-19T13:48:54.306Z,2.93
2019-03-19T13:53:59.649Z,3.50
2019-03-19T13:59:05.300Z,3.00
2019-03-19T14:04:11.767Z,3.30
2019-03-19T14:09:17.328Z,2.70
2019-03-19T14:14:22.615Z,3.23
2019-03-19T14:19:28.670Z,2.80
2019-03-19T14:24:33.956Z,2.80
2019-03-19T14:29:39.289Z,2.80
2019-03-19T14:34:44.559Z,2.77
2019-03-19T14:39:49.924Z,2.80
2019-03-19T14:44:55.388Z,2.92
2019-03-19T14:50:00.709Z,2.80
2019-03-19T14:55:06.427Z,2.27
2019-03-19T15:00:13.272Z,2.25
2019-03-19T15:05:18.419Z,2.55
2019-03-19T15:10:23.626Z,2.40
2019-03-19T15:15:28.853Z,2.23
2019-03-19T15:20:34.111Z,8.90
2019-03-19T15:25:39.642Z,2.10
2019-03-19T15:30:44.937Z,2.33
2019-03-19T15:35:51.136Z,2.37
2019-03-19T15:40:56.426Z,2.50
2019-03-19T15:46:01.707Z,2.00
2019-03-19T15:51:06.956Z,2.22
2019-03-19T15:56:12.182Z,1.90
2019-03-19T16:01:18.462Z,2.30
2019-03-19T16:06:23.977Z,2.03
2019-03-19T16:11:29.528Z,4.22
2019-03-19T16:16:34.811Z,2.20
2019-03-19T16:21:40.283Z,5.22
2019-03-19T16:26:45.661Z,2.62
2019-03-19T16:31:52.017Z,2.40
2019-03-19T16:36:57.241Z,2.58
2019-03-19T16:42:02.467Z,2.80
2019-03-19T16:47:08.893Z,2.37
2019-03-19T16:52:14.142Z,2.80
2019-03-19T16:57:19.359Z,2.70
2019-03-19T17:02:24.553Z,2.30
2019-03-19T17:07:29.838Z,2.37
2019-03-19T17:12:35.556Z,2.83
2019-03-19T17:17:40.796Z,41.67
2019-03-19T17:22:46.241Z,6.17
2019-03-19T17:27:51.640Z,6.72
2019-03-19T17:32:56.932Z,6.70
2019-03-19T17:38:02.306Z,3.62
2019-03-19T17:43:07.611Z,2.90
2019-03-19T17:48:16.314Z,9.30
2019-03-19T17:53:20.029Z,8.00
2019-03-19T17:58:25.643Z,6.10
2019-03-19T18:03:30.866Z,5.72
2019-03-19T18:08:36.282Z,6.73
2019-03-19T18:13:42.823Z,7.28
2019-03-19T18:18:48.036Z,10.70
2019-03-19T18:23:53.248Z,9.93
2019-03-19T18:28:58.905Z,12.15
2019-03-19T18:34:10.294Z,17.23
2019-03-19T18:39:13.134Z,10.25
2019-03-19T18:44:18.552Z,12.53
2019-03-19T18:49:24.195Z,17.07
2019-03-19T18:54:29.446Z,19.05
2019-03-19T18:59:35.026Z,14.45
2019-03-19T19:04:40.322Z,11.25
2019-03-19T19:09:45.644Z,8.18
2019-03-19T19:14:50.900Z,7.90
2019-03-19T19:19:56.125Z,9.58
2019-03-19T19:25:01.469Z,11.10
2019-03-19T19:30:09.298Z,9.15
2019-03-19T19:35:14.623Z,9.75
2019-03-19T19:40:20.114Z,10.53
2019-03-19T19:45:25.452Z,9.00
2019-03-19T19:50:30.810Z,10.65
2019-03-19T19:55:36.120Z,11.68
2019-03-19T20:00:41.582Z,13.68
2019-03-19T20:05:46.844Z,13.73
2019-03-19T20:10:52.855Z,10.63
2019-03-19T20:15:59.241Z,14.23
2019-03-19T20:21:04.652Z,15.75
2019-03-19T20:26:10.982Z,13.78
2019-03-19T20:31:16.843Z,13.98
2019-03-19T20:36:22.671Z,10.60
2019-03-19T20:41:28.227Z,14.63
2019-03-19T20:46:34.441Z,14.90
2019-03-19T20:51:39.835Z,10.75
2019-03-19T20:56:45.634Z,18.00
2019-03-19T21:01:51.014Z,15.43
2019-03-19T21:06:56.767Z,11.55
2019-03-19T21:12:02.056Z,11.03
2019-03-19T21:17:07.815Z,9.45
2019-03-19T21:22:15.905Z,9.73
2019-03-19T21:27:21.721Z,10.03
2019-03-19T21:32:27.483Z,10.20
2019-03-19T21:37:32.941Z,10.30
2019-03-19T21:42:39.391Z,12.45
2019-03-19T21:47:46.143Z,15.50
2019-03-19T21:52:52.755Z,12.30
2019-03-19T21:57:58.288Z,18.20
2019-03-19T22:03:03.990Z,24.47
2019-03-19T22:08:09.483Z,12.85
2019-03-19T22:13:14.773Z,13.10
2019-03-19T22:18:20.272Z,17.95
2019-03-19T22:23:25.555Z,17.87
2019-03-19T22:28:30.784Z,12.95
2019-03-19T22:33:36.038Z,8.00
2019-03-19T22:38:42.298Z,7.50
2019-03-19T22:43:47.615Z,9.78
2019-03-19T22:48:52.931Z,12.35
2019-03-19T22:53:58.158Z,13.73
2019-03-19T22:59:04.463Z,11.80
2019-03-19T23:04:09.658Z,8.43
2019-03-19T23:09:15.450Z,7.47
2019-03-19T23:14:21.035Z,7.33
2019-03-19T23:19:26.352Z,8.25
2019-03-19T23:24:31.714Z,13.20
2019-03-19T23:29:36.932Z,10.40
2019-03-19T23:34:42.279Z,8.93
2019-03-19T23:39:47.665Z,9.23
2019-03-19T23:44:54.051Z,9.40
2019-03-19T23:49:59.243Z,9.35
2019-03-19T23:55:04.459Z,8.45
